Time;durP1;ratioP1;P1;durP2;ratioP2;P2;SDS_P1;SDS_P2;PMS_P1;PMS_P2;Temp;Humidity;BMP_temperature;BMP_pressure;BME280_temperature;BME280_humidity;BME280_pressure;Samples;Min_cycle;Max_cycle;Signal;HPM_P1;HPM_P2
2022/04/21 00:00:13;;;;;;;7.75;5.78;;;;;;;;;;4997970;28;20370;-74
2022/04/21 00:02:40;;;;;;;7.97;5.82;;;;;;;;;;4988408;28;20133;-74
2022/04/21 00:05:07;;;;;;;10.30;6.53;;;;;;;;;;4995404;28;20046;-74
2022/04/21 00:07:33;;;;;;;9.63;6.18;;;;;;;;;;4991103;28;20366;-73
2022/04/21 00:09:59;;;;;;;7.53;5.97;;;;;;;;;;4979592;28;20054;-74
2022/04/21 00:12:25;;;;;;;9.27;6.40;;;;;;;;;;4972810;28;20039;-74
2022/04/21 00:14:51;;;;;;;9.60;6.38;;;;;;;;;;4994937;28;20136;-75
2022/04/21 00:17:17;;;;;;;11.57;6.85;;;;;;;;;;4993634;28;20052;-74
2022/04/21 00:19:43;;;;;;;11.25;6.93;;;;;;;;;;5013474;28;20069;-74
2022/04/21 00:24:54;;;;;;;14.70;8.07;;;;;;;;;;4967724;28;20310;-74
2022/04/21 00:27:20;;;;;;;13.18;8.88;;;;;;;;;;5014849;28;20049;-74
2022/04/21 00:29:46;;;;;;;14.38;8.55;;;;;;;;;;4997173;28;20045;-77
2022/04/21 00:32:13;;;;;;;10.63;7.65;;;;;;;;;;4988502;28;20046;-74
2022/04/21 00:34:39;;;;;;;14.07;7.93;;;;;;;;;;4994115;28;20473;-74
2022/04/21 00:37:05;;;;;;;10.43;7.68;;;;;;;;;;5010685;28;20046;-74
2022/04/21 00:39:32;;;;;;;12.63;7.68;;;;;;;;;;4964930;28;20046;-76
2022/04/21 00:41:59;;;;;;;11.77;7.65;;;;;;;;;;4996430;28;20087;-77
2022/04/21 00:44:26;;;;;;;12.13;8.13;;;;;;;;;;4997719;28;20057;-74
2022/04/21 00:46:53;;;;;;;14.90;8.50;;;;;;;;;;4985349;28;20050;-75
2022/04/21 00:49:20;;;;;;;11.35;8.73;;;;;;;;;;4995198;28;20057;-74
2022/04/21 00:51:46;;;;;;;13.13;8.88;;;;;;;;;;4987014;28;20054;-74
2022/04/21 00:54:13;;;;;;;12.07;8.77;;;;;;;;;;4992319;28;20091;-74
2022/04/21 00:56:40;;;;;;;15.50;10.05;;;;;;;;;;5013824;28;20109;-74
2022/04/21 00:59:07;;;;;;;14.88;9.70;;;;;;;;;;5013280;28;20060;-74
2022/04/21 01:04:19;;;;;;;15.82;9.80;;;;;;;;;;4996018;28;20116;-74
2022/04/21 01:06:45;;;;;;;15.15;9.88;;;;;;;;;;4964889;28;20061;-74
2022/04/21 01:09:12;;;;;;;15.57;10.02;;;;;;;;;;4980149;28;20046;-74
2022/04/21 01:11:39;;;;;;;15.20;10.85;;;;;;;;;;4993498;28;20054;-74
2022/04/21 01:14:05;;;;;;;15.88;10.00;;;;;;;;;;4994560;28;20064;-74
2022/04/21 01:16:31;;;;;;;13.15;10.07;;;;;;;;;;4996704;28;20057;-74
2022/04/21 01:18:57;;;;;;;15.48;10.18;;;;;;;;;;4995557;28;20046;-74
2022/04/21 01:21:23;;;;;;;14.98;10.27;;;;;;;;;;4996435;28;20058;-75
2022/04/21 01:23:49;;;;;;;15.55;10.43;;;;;;;;;;4995853;28;20045;-74
2022/04/21 01:26:15;;;;;;;14.40;10.88;;;;;;;;;;5012943;28;20050;-73
2022/04/21 01:28:41;;;;;;;14.75;10.38;;;;;;;;;;4983454;28;20053;-74
2022/04/21 01:31:08;;;;;;;15.82;10.98;;;;;;;;;;4995986;28;20084;-74
2022/04/21 01:33:34;;;;;;;15.23;10.18;;;;;;;;;;5012424;28;20069;-73
2022/04/21 01:36:00;;;;;;;17.13;10.82;;;;;;;;;;4995478;28;20053;-74
2022/04/21 01:41:11;;;;;;;15.75;11.15;;;;;;;;;;4994540;28;20280;-73
2022/04/21 01:43:43;;;;;;;17.23;10.75;;;;;;;;;;4960658;28;20064;-73
2022/04/21 01:46:09;;;;;;;12.63;9.75;;;;;;;;;;4992035;28;20062;-73
2022/04/21 01:48:36;;;;;;;13.50;9.52;;;;;;;;;;4989512;28;20539;-73
2022/04/21 01:51:02;;;;;;;15.13;10.63;;;;;;;;;;4986070;28;20099;-74
2022/04/21 01:53:28;;;;;;;15.38;10.80;;;;;;;;;;4989138;28;20448;-74
2022/04/21 01:55:54;;;;;;;16.02;11.02;;;;;;;;;;4991809;28;20081;-77
2022/04/21 01:58:20;;;;;;;17.17;11.27;;;;;;;;;;4992980;28;20486;-74
2022/04/21 02:00:46;;;;;;;17.92;12.02;;;;;;;;;;4955309;28;20058;-74
2022/04/21 02:03:12;;;;;;;18.83;12.40;;;;;;;;;;4967946;28;20104;-74
2022/04/21 02:05:38;;;;;;;16.90;12.57;;;;;;;;;;5012634;28;20060;-74
2022/04/21 02:08:05;;;;;;;16.23;12.43;;;;;;;;;;4994925;28;20412;-74
2022/04/21 02:10:31;;;;;;;18.40;13.43;;;;;;;;;;4979143;28;20164;-74
2022/04/21 02:12:57;;;;;;;22.95;13.75;;;;;;;;;;4994088;28;20144;-74
2022/04/21 02:15:24;;;;;;;20.70;15.35;;;;;;;;;;4989614;28;20161;-74
2022/04/21 02:17:50;;;;;;;24.65;15.05;;;;;;;;;;5010098;28;20068;-74
2022/04/21 02:20:17;;;;;;;26.95;15.40;;;;;;;;;;4980712;28;20072;-74
2022/04/21 02:22:46;;;;;;;25.15;15.82;;;;;;;;;;4965503;28;20046;-73
2022/04/21 02:25:14;;;;;;;24.10;15.95;;;;;;;;;;5010920;28;20567;-74
2022/04/21 02:27:41;;;;;;;20.67;15.27;;;;;;;;;;4986168;28;20042;-73
2022/04/21 02:30:08;;;;;;;22.45;15.25;;;;;;;;;;5000387;28;20041;-73
2022/04/21 02:32:34;;;;;;;20.90;15.95;;;;;;;;;;4994742;28;20050;-76
2022/04/21 02:35:02;;;;;;;22.10;15.07;;;;;;;;;;4994993;28;20045;-73
2022/04/21 02:37:28;;;;;;;22.45;15.27;;;;;;;;;;4983034;28;20552;-74
2022/04/21 02:39:54;;;;;;;22.92;16.10;;;;;;;;;;4975687;28;20054;-78
2022/04/21 02:42:20;;;;;;;21.73;15.32;;;;;;;;;;4992065;28;20081;-74
2022/04/21 02:44:47;;;;;;;19.48;15.38;;;;;;;;;;5011692;28;20045;-74
2022/04/21 02:47:14;;;;;;;22.73;15.13;;;;;;;;;;4985638;28;20057;-74
2022/04/21 02:49:45;;;;;;;25.88;16.33;;;;;;;;;;4987217;28;20049;-75
2022/04/21 02:52:12;;;;;;;22.17;14.98;;;;;;;;;;4999032;28;20046;-74
2022/04/21 02:57:23;;;;;;;24.50;15.10;;;;;;;;;;4985951;28;20069;-74
2022/04/21 02:59:50;;;;;;;20.52;15.18;;;;;;;;;;4980488;28;20046;-74
2022/04/21 03:02:16;;;;;;;19.58;15.68;;;;;;;;;;5005020;28;20046;-74
2022/04/21 03:04:43;;;;;;;20.48;14.65;;;;;;;;;;4994574;28;20042;-73
2022/04/21 03:07:09;;;;;;;22.70;15.48;;;;;;;;;;5000346;28;20524;-73
2022/04/21 03:09:35;;;;;;;19.60;13.73;;;;;;;;;;4994260;28;20505;-73
2022/04/21 03:12:04;;;;;;;18.60;13.45;;;;;;;;;;5010659;28;20042;-73
2022/04/21 03:14:30;;;;;;;20.23;12.85;;;;;;;;;;4993738;28;20319;-73
2022/04/21 03:16:57;;;;;;;17.02;12.30;;;;;;;;;;4993138;28;20512;-77
2022/04/21 03:19:24;;;;;;;17.50;11.68;;;;;;;;;;5009664;28;20117;-73
2022/04/21 03:24:35;;;;;;;15.32;11.57;;;;;;;;;;4979981;28;20084;-73
2022/04/21 03:27:03;;;;;;;18.38;11.80;;;;;;;;;;4977643;28;20049;-73
2022/04/21 03:29:29;;;;;;;15.80;10.95;;;;;;;;;;4989350;28;20485;-73
2022/04/21 03:31:55;;;;;;;18.02;10.57;;;;;;;;;;4991307;28;20435;-73
2022/04/21 03:34:22;;;;;;;15.68;11.75;;;;;;;;;;4979007;28;20066;-73
2022/04/21 03:36:48;;;;;;;18.15;11.40;;;;;;;;;;4991522;28;20099;-74
2022/04/21 03:39:22;;;;;;;16.88;12.07;;;;;;;;;;4989622;28;20049;-73
2022/04/21 03:41:54;;;;;;;14.93;11.02;;;;;;;;;;5014400;28;20049;-73
2022/04/21 03:44:24;;;;;;;15.70;10.73;;;;;;;;;;4978406;28;20034;-74
2022/04/21 03:46:50;;;;;;;15.35;11.80;;;;;;;;;;4989821;28;20496;-73
2022/04/21 03:49:16;;;;;;;16.05;10.88;;;;;;;;;;4985309;28;20038;-73
2022/04/21 03:51:42;;;;;;;19.27;11.57;;;;;;;;;;4986797;28;20065;-75
2022/04/21 03:54:08;;;;;;;16.17;10.50;;;;;;;;;;4993985;28;20600;-75
2022/04/21 03:56:35;;;;;;;12.52;10.73;;;;;;;;;;4997763;28;20417;-75
2022/04/21 03:59:01;;;;;;;16.88;11.90;;;;;;;;;;4965718;28;20049;-79
2022/04/21 04:01:27;;;;;;;19.05;11.73;;;;;;;;;;4980486;28;20058;-76
2022/04/21 04:03:53;;;;;;;17.38;11.63;;;;;;;;;;5014487;28;20424;-75
2022/04/21 04:11:50;;;;;;;17.55;11.27;;;;;;;;;;4996997;28;20108;-73
2022/04/21 04:14:16;;;;;;;13.88;10.80;;;;;;;;;;4995560;28;20089;-74
2022/04/21 04:16:44;;;;;;;15.82;10.20;;;;;;;;;;4997651;28;20374;-73
2022/04/21 04:19:10;;;;;;;12.75;10.43;;;;;;;;;;4980403;28;20108;-73
2022/04/21 04:21:37;;;;;;;14.23;10.60;;;;;;;;;;4996918;28;20135;-74
2022/04/21 04:24:03;;;;;;;15.70;10.50;;;;;;;;;;4990140;28;20052;-76
2022/04/21 04:26:29;;;;;;;15.30;10.27;;;;;;;;;;4996616;28;20054;-73
2022/04/21 04:28:55;;;;;;;14.95;9.65;;;;;;;;;;4997218;28;20115;-73
2022/04/21 04:31:21;;;;;;;14.60;10.02;;;;;;;;;;4996740;28;20038;-73
2022/04/21 04:33:47;;;;;;;14.60;9.77;;;;;;;;;;5013340;28;20076;-74
2022/04/21 04:36:16;;;;;;;13.25;10.23;;;;;;;;;;4996644;28;20078;-73
2022/04/21 04:38:43;;;;;;;13.93;10.15;;;;;;;;;;4967012;28;20050;-73
2022/04/21 04:43:53;;;;;;;12.95;9.88;;;;;;;;;;4963953;28;20108;-73
2022/04/21 04:46:37;;;;;;;14.18;10.18;;;;;;;;;;5012118;28;20149;-75
2022/04/21 04:49:08;;;;;;;18.98;9.98;;;;;;;;;;4975956;28;20505;-79
2022/04/21 04:51:34;;;;;;;12.80;9.70;;;;;;;;;;4989976;28;20065;-75
2022/04/21 04:54:01;;;;;;;15.70;9.60;;;;;;;;;;5000792;28;20042;-75
2022/04/21 04:56:27;;;;;;;13.13;9.57;;;;;;;;;;4986030;28;20053;-75
2022/04/21 04:58:53;;;;;;;14.27;10.25;;;;;;;;;;4977987;28;20092;-75
2022/04/21 05:01:42;;;;;;;15.23;10.48;;;;;;;;;;4994491;28;20077;-75
2022/04/21 05:04:21;;;;;;;14.88;9.75;;;;;;;;;;4986138;28;20096;-75
2022/04/21 05:06:48;;;;;;;15.45;10.85;;;;;;;;;;4990339;28;20397;-75
2022/04/21 05:09:16;;;;;;;15.20;10.23;;;;;;;;;;4985266;28;20058;-75
2022/04/21 05:11:43;;;;;;;15.88;9.98;;;;;;;;;;4996522;28;20492;-73
2022/04/21 05:14:09;;;;;;;13.82;9.98;;;;;;;;;;4995802;28;20116;-72
2022/04/21 05:16:36;;;;;;;15.10;9.65;;;;;;;;;;4996089;28;20064;-74
2022/04/21 05:19:04;;;;;;;14.02;9.45;;;;;;;;;;4996136;28;20045;-73
2022/04/21 05:21:31;;;;;;;12.75;9.13;;;;;;;;;;5012659;28;20520;-73
2022/04/21 05:23:59;;;;;;;12.43;9.02;;;;;;;;;;4993981;28;20076;-72
2022/04/21 05:26:26;;;;;;;12.65;9.38;;;;;;;;;;4969685;28;20046;-73
2022/04/21 05:28:56;;;;;;;10.70;8.27;;;;;;;;;;4986724;28;20057;-72
2022/04/21 05:31:22;;;;;;;12.15;7.85;;;;;;;;;;4985365;28;20129;-72
2022/04/21 05:33:49;;;;;;;11.88;8.50;;;;;;;;;;4984263;28;20463;-73
2022/04/21 05:36:15;;;;;;;13.40;8.05;;;;;;;;;;4947859;28;20049;-73
2022/04/21 05:38:41;;;;;;;11.65;7.88;;;;;;;;;;5007031;28;20057;-73
2022/04/21 05:41:08;;;;;;;11.63;8.32;;;;;;;;;;4987902;28;20049;-76
2022/04/21 05:43:42;;;;;;;11.48;8.10;;;;;;;;;;4992999;28;20420;-73
2022/04/21 05:46:09;;;;;;;11.25;7.82;;;;;;;;;;4993881;28;20058;-76
2022/04/21 05:48:36;;;;;;;13.68;7.80;;;;;;;;;;4978554;28;20829;-73
2022/04/21 05:51:02;;;;;;;11.50;7.45;;;;;;;;;;4995538;28;20485;-73
2022/04/21 05:53:29;;;;;;;10.57;7.38;;;;;;;;;;4977297;28;20657;-73
2022/04/21 05:55:55;;;;;;;7.65;6.82;;;;;;;;;;4995705;28;20056;-73
2022/04/21 05:58:25;;;;;;;9.50;7.22;;;;;;;;;;4994398;28;20485;-73
2022/04/21 06:00:51;;;;;;;10.20;7.72;;;;;;;;;;4995502;28;20050;-73
2022/04/21 06:03:18;;;;;;;12.38;7.53;;;;;;;;;;4978859;28;20045;-73
2022/04/21 06:05:44;;;;;;;9.98;6.95;;;;;;;;;;4976797;28;20062;-73
2022/04/21 06:08:10;;;;;;;8.25;6.72;;;;;;;;;;4981653;28;20042;-75
2022/04/21 06:10:37;;;;;;;15.05;7.43;;;;;;;;;;4972542;28;20057;-73
2022/04/21 06:13:03;;;;;;;;;;;;;;;;;;4982100;28;20046;-73
2022/04/21 06:15:29;;;;;;;;;;;;;;;;;;4994284;28;19945;-72
2022/04/21 06:17:55;;;;;;;;;;;;;;;;;;4995507;28;19929;-72
2022/04/21 06:20:21;;;;;;;;;;;;;;;;;;4995218;28;19971;-73
2022/04/21 06:22:47;;;;;;;;;;;;;;;;;;5005975;28;19925;-72
2022/04/21 06:25:13;;;;;;;;;;;;;;;;;;4981121;28;20305;-73
2022/04/21 06:27:39;;;;;;;;;;;;;;;;;;4993773;28;20285;-73
2022/04/21 06:30:05;;;;;;;;;;;;;;;;;;4985105;28;20476;-73
2022/04/21 06:32:31;;;;;;;;;;;;;;;;;;5005943;28;19926;-73
2022/04/21 06:34:57;;;;;;;;;;;;;;;;;;5002670;28;19928;-73
2022/04/21 06:37:23;;;;;;;;;;;;;;;;;;4990586;28;19921;-74
2022/04/21 06:39:49;;;;;;;;;;;;;;;;;;4992163;28;19947;-74
2022/04/21 06:42:15;;;;;;;;;;;;;;;;;;4984153;28;19957;-74
2022/04/21 06:50:10;;;;;;;;;;;;;;;;;;4990126;28;19921;-76
2022/04/21 06:52:37;;;;;;;;;;;;;;;;;;4989760;28;19927;-75
2022/04/21 06:55:03;;;;;;;;;;;;;;;;;;4991307;28;19921;-74
2022/04/21 06:57:29;;;;;;;;;;;;;;;;;;4994289;28;19976;-74
2022/04/21 06:59:54;;;;;;;;;;;;;;;;;;4995376;28;19921;-74
2022/04/21 07:02:20;;;;;;;;;;;;;;;;;;4978872;28;20009;-73
2022/04/21 07:04:46;;;;;;;;;;;;;;;;;;4995533;28;19980;-73
2022/04/21 07:07:12;;;;;;;;;;;;;;;;;;4994660;28;19921;-73
2022/04/21 07:09:39;;;;;;;;;;;;;;;;;;4994113;28;19975;-73
2022/04/21 07:12:05;;;;;;;;;;;;;;;;;;4979054;28;20008;-73
2022/04/21 07:14:31;;;;;;;;;;;;;;;;;;4979730;28;20129;-73
2022/04/21 07:16:58;;;;;;;;;;;;;;;;;;5011839;28;20003;-76
2022/04/21 07:19:24;;;;;;;;;;;;;;;;;;4994397;28;19925;-74
2022/04/21 07:21:50;;;;;;;;;;;;;;;;;;4994060;28;19929;-74
2022/04/21 07:24:16;;;;;;;;;;;;;;;;;;4992317;28;20335;-73
2022/04/21 07:26:42;;;;;;;;;;;;;;;;;;4991955;28;19976;-73
2022/04/21 07:29:08;;;;;;;;;;;;;;;;;;4986923;28;19969;-73
2022/04/21 07:31:35;;;;;;;;;;;;;;;;;;4993025;28;19922;-73
2022/04/21 07:34:01;;;;;;;;;;;;;;;;;;4989117;28;19928;-78
2022/04/21 07:36:27;;;;;;;;;;;;;;;;;;4975251;28;19925;-74
2022/04/21 07:38:54;;;;;;;;;;;;;;;;;;4994223;28;19922;-73
2022/04/21 07:41:20;;;;;;;;;;;;;;;;;;4978090;28;20607;-73
2022/04/21 07:43:46;;;;;;;;;;;;;;;;;;4999007;28;19922;-74
2022/04/21 07:46:13;;;;;;;;;;;;;;;;;;4978696;28;19970;-74
2022/04/21 07:51:23;;;;;;;;;;;;;;;;;;4975217;28;19968;-74
2022/04/21 07:53:49;;;;;;;;;;;;;;;;;;4978497;28;20388;-74
2022/04/21 07:56:15;;;;;;;;;;;;;;;;;;4992233;28;19967;-76
2022/04/21 07:58:41;;;;;;;;;;;;;;;;;;4978669;28;19922;-74
2022/04/21 08:01:07;;;;;;;;;;;;;;;;;;4984233;28;19949;-75
2022/04/21 08:03:37;;;;;;;;;;;;;;;;;;4975355;28;20020;-74
2022/04/21 08:06:03;;;;;;;;;;;;;;;;;;5006329;28;19925;-74
2022/04/21 08:08:29;;;;;;;;;;;;;;;;;;5011124;28;20019;-75
2022/04/21 08:10:55;;;;;;;;;;;;;;;;;;4989077;28;19926;-74
2022/04/21 08:13:21;;;;;;;;;;;;;;;;;;4987369;28;19926;-75
2022/04/21 08:15:46;;;;;;;;;;;;;;;;;;4992016;28;19928;-75
2022/04/21 08:18:13;;;;;;;;;;;;;;;;;;5007573;28;19944;-75
2022/04/21 08:20:40;;;;;;;;;;;;;;;;;;4994355;28;19991;-74
2022/04/21 08:23:06;;;;;;;;;;;;;;;;;;4994437;28;20004;-75
2022/04/21 08:33:46;;;;;;;;;;;;;;;;;;4994148;28;20388;-74
2022/04/21 08:36:12;;;;;;;;;;;;;;;;;;5013270;28;19929;-74
2022/04/21 08:38:38;;;;;;;;;;;;;;;;;;4996656;28;20013;-75
2022/04/21 08:41:04;;;;;;;;;;;;;;;;;;4979970;28;19936;-74
2022/04/21 08:43:30;;;;;;;;;;;;;;;;;;4957173;28;19951;-74
2022/04/21 08:45:55;;;;;;;;;;;;;;;;;;5003919;28;20024;-74
2022/04/21 08:48:21;;;;;;;;;;;;;;;;;;5006853;28;20545;-75
2022/04/21 08:50:47;;;;;;;;;;;;;;;;;;4991630;28;19927;-74
2022/04/21 08:53:13;;;;;;;;;;;;;;;;;;4991012;28;20323;-75
2022/04/21 08:55:39;;;;;;;;;;;;;;;;;;5005129;28;20427;-74
2022/04/21 08:58:05;;;;;;;;;;;;;;;;;;4969677;28;20393;-76
2022/04/21 09:00:31;;;;;;;;;;;;;;;;;;5005663;28;19921;-75
2022/04/21 09:02:58;;;;;;;4.50;2.40;;;;;;;;;;4996922;28;19921;-75
2022/04/21 09:05:27;;;;;;;5.88;2.63;;;;;;;;;;5013322;28;20050;-75
2022/04/21 09:07:53;;;;;;;4.20;2.45;;;;;;;;;;4987287;28;20046;-74
2022/04/21 09:10:20;;;;;;;3.30;2.55;;;;;;;;;;5001842;28;20046;-77
2022/04/21 09:12:52;;;;;;;2.30;1.95;;;;;;;;;;4988788;28;20129;-74
2022/04/21 09:15:19;;;;;;;6.07;2.40;;;;;;;;;;4987965;28;20058;-76
2022/04/21 09:17:47;;;;;;;4.25;2.60;;;;;;;;;;4987785;28;20125;-76
2022/04/21 09:20:14;;;;;;;2.45;2.08;;;;;;;;;;4988058;28;20045;-74
2022/04/21 09:22:42;;;;;;;6.80;2.80;;;;;;;;;;4995423;28;20181;-74
2022/04/21 09:25:08;;;;;;;5.97;2.80;;;;;;;;;;5010803;28;20049;-74
2022/04/21 09:27:39;;;;;;;8.40;5.95;;;;;;;;;;4994986;28;20878;-74
2022/04/21 09:30:05;;;;;;;9.63;5.68;;;;;;;;;;4994944;28;20054;-76
2022/04/21 09:32:31;;;;;;;6.30;4.00;;;;;;;;;;4979158;28;20397;-75
2022/04/21 09:34:58;;;;;;;4.95;3.08;;;;;;;;;;4996201;28;20049;-75
2022/04/21 09:37:24;;;;;;;5.43;2.45;;;;;;;;;;4995033;28;20048;-81
2022/04/21 09:39:51;;;;;;;7.20;2.67;;;;;;;;;;4984734;28;20073;-73
2022/04/21 09:42:23;;;;;;;4.18;2.70;;;;;;;;;;5004076;28;20052;-74
2022/04/21 09:47:48;;;;;;;5.20;2.90;;;;;;;;;;4945993;28;20105;-75
2022/04/21 09:50:14;;;;;;;3.97;2.65;;;;;;;;;;4980161;28;20038;-75
2022/04/21 09:52:50;;;;;;;3.50;2.78;;;;;;;;;;5011463;28;20048;-75
2022/04/21 09:55:25;;;;;;;5.07;3.03;;;;;;;;;;4991983;28;20049;-77
2022/04/21 09:57:52;;;;;;;4.50;3.00;;;;;;;;;;4994105;28;20049;-75
2022/04/21 10:00:21;;;;;;;4.13;3.33;;;;;;;;;;4992420;28;20363;-74
2022/04/21 10:02:50;;;;;;;3.72;2.97;;;;;;;;;;4957550;28;20050;-74
2022/04/21 10:05:17;;;;;;;7.20;3.00;;;;;;;;;;4974595;28;20092;-75
2022/04/21 10:07:44;;;;;;;5.90;2.80;;;;;;;;;;4975166;28;20053;-75
2022/04/21 10:10:10;;;;;;;6.15;5.47;;;;;;;;;;4991198;28;20512;-74
2022/04/21 10:12:37;;;;;;;3.67;2.80;;;;;;;;;;4982437;28;20432;-75
2022/04/21 10:15:04;;;;;;;9.65;7.53;;;;;;;;;;4975851;28;20191;-74
2022/04/21 10:17:30;;;;;;;5.85;3.00;;;;;;;;;;4989234;28;20133;-75
2022/04/21 10:19:56;;;;;;;5.13;3.22;;;;;;;;;;4966516;28;20073;-75
2022/04/21 10:22:23;;;;;;;4.53;2.72;;;;;;;;;;5006176;28;20045;-75
2022/04/21 10:24:49;;;;;;;5.72;3.40;;;;;;;;;;5007355;28;20045;-75
2022/04/21 10:27:34;;;;;;;5.55;2.78;;;;;;;;;;4973834;28;20096;-75
2022/04/21 10:30:00;;;;;;;6.03;2.72;;;;;;;;;;4971402;28;20139;-74
2022/04/21 10:32:45;;;;;;;5.25;2.90;;;;;;;;;;4986714;28;20053;-79
2022/04/21 10:35:39;;;;;;;5.18;2.30;;;;;;;;;;4991838;28;20050;-75
2022/04/21 10:38:14;;;;;;;4.05;2.45;;;;;;;;;;4951835;28;20061;-76
2022/04/21 10:41:02;;;;;;;6.18;2.38;;;;;;;;;;4988608;28;20056;-75
2022/04/21 10:44:04;;;;;;;4.55;2.33;;;;;;;;;;4977170;28;20045;-74
2022/04/21 10:46:31;;;;;;;5.30;2.58;;;;;;;;;;4890702;29;20100;-74
2022/04/21 10:48:58;;;;;;;4.88;2.30;;;;;;;;;;4972774;28;20132;-75
2022/04/21 10:57:17;;;;;;;6.30;5.40;;;;;;;;;;4935969;28;20046;-75
2022/04/21 11:00:03;;;;;;;3.65;2.45;;;;;;;;;;5007276;28;20489;-79
2022/04/21 11:02:42;;;;;;;4.95;2.83;;;;;;;;;;4993173;28;20123;-74
2022/04/21 11:05:26;;;;;;;4.00;2.30;;;;;;;;;;4994311;28;20498;-74
2022/04/21 11:07:52;;;;;;;4.50;2.05;;;;;;;;;;4977465;28;20497;-75
2022/04/21 11:10:29;;;;;;;2.33;1.75;;;;;;;;;;4992260;28;20050;-76
2022/04/21 11:12:55;;;;;;;7.45;2.30;;;;;;;;;;4992712;28;20047;-74
2022/04/21 11:15:41;;;;;;;3.75;2.38;;;;;;;;;;4994333;28;20064;-75
2022/04/21 11:18:13;;;;;;;3.38;2.45;;;;;;;;;;4989117;28;20046;-74
2022/04/21 11:20:49;;;;;;;3.10;2.17;;;;;;;;;;4975369;28;20112;-74
2022/04/21 11:23:23;;;;;;;4.97;2.00;;;;;;;;;;5000448;28;20046;-74
2022/04/21 11:25:50;;;;;;;3.38;1.88;;;;;;;;;;5011133;28;20171;-74
2022/04/21 11:28:26;;;;;;;4.78;2.50;;;;;;;;;;5000214;28;20046;-75
2022/04/21 11:30:57;;;;;;;3.47;2.50;;;;;;;;;;4988580;28;20107;-74
2022/04/21 11:33:23;;;;;;;4.25;2.80;;;;;;;;;;4994449;28;20058;-74
2022/04/21 11:35:49;;;;;;;3.60;2.30;;;;;;;;;;4994002;28;20050;-74
2022/04/21 11:38:15;;;;;;;3.55;2.47;;;;;;;;;;4994438;28;20046;-74
2022/04/21 11:40:42;;;;;;;6.45;2.65;;;;;;;;;;4994227;28;20114;-74
2022/04/21 11:43:18;;;;;;;4.05;2.60;;;;;;;;;;4994414;28;20199;-74
2022/04/21 11:46:06;;;;;;;6.85;2.70;;;;;;;;;;4977547;28;20501;-77
2022/04/21 11:48:34;;;;;;;4.25;2.47;;;;;;;;;;4992037;28;20136;-74
2022/04/21 11:51:00;;;;;;;4.20;2.65;;;;;;;;;;5011177;28;20057;-74
2022/04/21 11:53:30;;;;;;;4.07;2.10;;;;;;;;;;5014599;28;20050;-74
2022/04/21 11:55:56;;;;;;;3.88;2.30;;;;;;;;;;4982113;28;20086;-74
2022/04/21 11:58:48;;;;;;;2.38;2.13;;;;;;;;;;4978671;28;20046;-75
2022/04/21 12:06:52;;;;;;;5.32;2.50;;;;;;;;;;4996704;28;20072;-74
2022/04/21 12:09:22;;;;;;;4.82;2.97;;;;;;;;;;4997907;28;20482;-74
2022/04/21 12:11:51;;;;;;;6.20;2.78;;;;;;;;;;4997097;28;20050;-75
2022/04/21 12:14:18;;;;;;;6.35;2.80;;;;;;;;;;4997524;28;20462;-75
2022/04/21 12:16:54;;;;;;;4.80;2.60;;;;;;;;;;5014226;28;20050;-74
2022/04/21 12:19:20;;;;;;;4.35;2.30;;;;;;;;;;5014815;28;20041;-75
2022/04/21 12:22:00;;;;;;;5.20;2.60;;;;;;;;;;4980965;28;20541;-74
2022/04/21 12:24:44;;;;;;;4.53;2.50;;;;;;;;;;4996882;28;20085;-75
2022/04/21 12:27:13;;;;;;;2.70;2.42;;;;;;;;;;4978549;28;20405;-75
2022/04/21 12:29:51;;;;;;;4.90;2.92;;;;;;;;;;4980061;28;20379;-74
2022/04/21 12:32:25;;;;;;;4.97;2.80;;;;;;;;;;4997543;28;20052;-74
2022/04/21 12:34:55;;;;;;;3.75;2.83;;;;;;;;;;4980421;28;20060;-74
2022/04/21 12:37:28;;;;;;;6.45;3.00;;;;;;;;;;5005174;28;20100;-75
2022/04/21 12:39:54;;;;;;;;;;;;;;;;;;4995625;28;20061;-74
2022/04/21 12:42:21;;;;;;;5.05;2.90;;;;;;;;;;4993694;28;19921;-75
2022/04/21 12:44:47;;;;;;;6.60;2.92;;;;;;;;;;5003898;28;20437;-75
2022/04/21 12:47:15;;;;;;;3.40;2.95;;;;;;;;;;4997547;28;20084;-77
2022/04/21 12:49:55;;;;;;;3.20;2.78;;;;;;;;;;4993355;28;20086;-74
2022/04/21 12:52:27;;;;;;;5.45;3.22;;;;;;;;;;4995239;28;20438;-74
2022/04/21 12:54:53;;;;;;;4.95;3.50;;;;;;;;;;5013868;28;20363;-74
2022/04/21 12:57:19;;;;;;;7.28;3.35;;;;;;;;;;5014075;28;20057;-75
2022/04/21 12:59:46;;;;;;;6.53;3.50;;;;;;;;;;4981579;28;20056;-75
2022/04/21 13:02:13;;;;;;;9.27;3.58;;;;;;;;;;4979640;28;20050;-75
2022/04/21 13:04:40;;;;;;;3.97;3.22;;;;;;;;;;4995607;28;20092;-75
2022/04/21 13:07:08;;;;;;;6.35;3.88;;;;;;;;;;4979957;28;20551;-74
2022/04/21 13:09:34;;;;;;;6.65;3.75;;;;;;;;;;4995905;28;20046;-79
2022/04/21 13:12:00;;;;;;;5.68;3.38;;;;;;;;;;4979568;28;20129;-75
2022/04/21 13:14:26;;;;;;;3.95;3.42;;;;;;;;;;5005454;28;20058;-75
2022/04/21 13:16:52;;;;;;;6.88;3.95;;;;;;;;;;4996317;28;20045;-74
2022/04/21 13:19:18;;;;;;;6.32;3.58;;;;;;;;;;4980641;28;20046;-77
2022/04/21 13:21:55;;;;;;;8.35;4.35;;;;;;;;;;4981336;28;20058;-74
2022/04/21 13:24:31;;;;;;;7.38;4.32;;;;;;;;;;5011903;28;20049;-74
2022/04/21 13:26:58;;;;;;;7.57;4.07;;;;;;;;;;5003738;28;20133;-74
2022/04/21 13:29:24;;;;;;;9.82;4.40;;;;;;;;;;4994466;28;20054;-76
2022/04/21 13:34:36;;;;;;;5.00;4.13;;;;;;;;;;4997580;28;20142;-76
2022/04/21 13:37:03;;;;;;;6.93;4.03;;;;;;;;;;4996066;28;20436;-74
2022/04/21 13:39:30;;;;;;;5.38;4.38;;;;;;;;;;4979299;28;20539;-74
2022/04/21 13:41:56;;;;;;;8.07;4.28;;;;;;;;;;4994778;28;20054;-74
2022/04/21 13:44:22;;;;;;;8.07;3.92;;;;;;;;;;5012765;28;20508;-74
2022/04/21 13:46:48;;;;;;;9.05;4.15;;;;;;;;;;4995158;28;20084;-79
2022/04/21 13:49:14;;;;;;;4.68;4.20;;;;;;;;;;4979666;28;20053;-75
2022/04/21 13:51:40;;;;;;;7.63;4.70;;;;;;;;;;4995376;28;20050;-75
2022/04/21 13:54:07;;;;;;;8.13;4.40;;;;;;;;;;4979752;28;20046;-75
2022/04/21 13:56:35;;;;;;;7.45;4.30;;;;;;;;;;4996212;28;20050;-74
2022/04/21 13:59:01;;;;;;;9.20;4.13;;;;;;;;;;4994784;28;20049;-75
2022/04/21 14:01:28;;;;;;;8.60;4.38;;;;;;;;;;5012720;28;20496;-75
2022/04/21 14:03:54;;;;;;;5.40;4.35;;;;;;;;;;4994642;28;20040;-74
2022/04/21 14:06:21;;;;;;;5.15;4.00;;;;;;;;;;5012397;28;20482;-74
2022/04/21 14:08:47;;;;;;;11.15;4.80;;;;;;;;;;4979164;28;20042;-75
2022/04/21 14:11:16;;;;;;;6.10;4.57;;;;;;;;;;4995806;28;20056;-75
2022/04/21 14:13:43;;;;;;;5.10;4.20;;;;;;;;;;4991495;28;20449;-76
2022/04/21 14:16:10;;;;;;;6.18;4.40;;;;;;;;;;4990756;28;20084;-74
2022/04/21 14:18:37;;;;;;;9.25;4.70;;;;;;;;;;5002425;28;20050;-75
2022/04/21 14:21:06;;;;;;;7.50;4.75;;;;;;;;;;4994241;28;20115;-76
2022/04/21 14:23:36;;;;;;;5.55;4.45;;;;;;;;;;4997577;28;20046;-75
2022/04/21 14:26:11;;;;;;;7.97;4.35;;;;;;;;;;5008172;28;20042;-74
2022/04/21 14:28:38;;;;;;;5.50;4.78;;;;;;;;;;5003122;28;20112;-75
2022/04/21 14:31:05;;;;;;;7.65;4.80;;;;;;;;;;5008571;28;20050;-75
2022/04/21 14:33:31;;;;;;;6.57;4.88;;;;;;;;;;5009957;28;20042;-75
2022/04/21 14:35:57;;;;;;;6.88;4.90;;;;;;;;;;5009313;28;20081;-74
2022/04/21 14:44:04;;;;;;;6.28;5.05;;;;;;;;;;4992365;28;20058;-75
2022/04/21 14:46:35;;;;;;;7.97;5.28;;;;;;;;;;5009996;28;20128;-74
2022/04/21 14:49:01;;;;;;;5.97;5.03;;;;;;;;;;4993684;28;20085;-75
2022/04/21 14:51:29;;;;;;;6.20;5.50;;;;;;;;;;4993367;28;20038;-75
2022/04/21 14:53:55;;;;;;;8.50;5.43;;;;;;;;;;4989636;28;20125;-74
2022/04/21 14:56:21;;;;;;;7.70;5.93;;;;;;;;;;4996605;28;20042;-74
2022/04/21 14:58:50;;;;;;;9.77;5.72;;;;;;;;;;5007821;28;20072;-79
2022/04/21 15:01:17;;;;;;;7.82;5.53;;;;;;;;;;5011210;28;20046;-75
2022/04/21 15:03:43;;;;;;;8.57;6.00;;;;;;;;;;5008799;28;20152;-76
2022/04/21 15:06:10;;;;;;;9.13;6.93;;;;;;;;;;4997458;28;20452;-75
2022/04/21 15:08:36;;;;;;;7.20;6.22;;;;;;;;;;5009892;28;20046;-75
2022/04/21 15:11:03;;;;;;;8.15;7.00;;;;;;;;;;5000219;28;20047;-75
2022/04/21 15:13:29;;;;;;;9.60;6.60;;;;;;;;;;4995951;28;20050;-75
2022/04/21 15:15:56;;;;;;;9.30;6.78;;;;;;;;;;5008619;28;20096;-75
2022/04/21 15:18:22;;;;;;;10.40;7.20;;;;;;;;;;5010505;28;20049;-75
2022/04/21 15:20:48;;;;;;;9.05;7.28;;;;;;;;;;5006769;28;20046;-75
2022/04/21 15:23:14;;;;;;;8.07;7.28;;;;;;;;;;5007499;28;20034;-75
2022/04/21 15:25:41;;;;;;;8.48;6.85;;;;;;;;;;5008787;28;20041;-78
2022/04/21 15:28:10;;;;;;;10.90;7.45;;;;;;;;;;4996345;28;20136;-75
2022/04/21 15:30:37;;;;;;;8.70;7.30;;;;;;;;;;5012266;28;20046;-75
2022/04/21 15:33:04;;;;;;;11.20;7.60;;;;;;;;;;5006241;28;20502;-75
2022/04/21 15:35:30;;;;;;;8.98;7.55;;;;;;;;;;4996241;28;20168;-79
2022/04/21 15:37:56;;;;;;;9.75;8.18;;;;;;;;;;4997815;28;20505;-75
2022/04/21 15:40:23;;;;;;;11.20;7.28;;;;;;;;;;5005034;28;20042;-76
2022/04/21 15:42:49;;;;;;;10.40;7.80;;;;;;;;;;4995775;28;20512;-74
2022/04/21 15:45:15;;;;;;;10.55;8.05;;;;;;;;;;5015076;28;20493;-74
2022/04/21 15:47:41;;;;;;;8.90;7.13;;;;;;;;;;4998610;28;20049;-74
2022/04/21 15:50:07;;;;;;;8.82;7.38;;;;;;;;;;4997536;28;20385;-75
2022/04/21 15:52:33;;;;;;;10.13;7.15;;;;;;;;;;5001315;28;20121;-75
2022/04/21 16:00:30;;;;;;;10.40;7.75;;;;;;;;;;4989442;28;20410;-75
2022/04/21 16:02:56;;;;;;;10.07;7.10;;;;;;;;;;4978736;28;20046;-75